createdAt,value
2022-12-29T00:01:10.445Z,2.49
2022-12-29T00:03:38.618Z,2.46
2022-12-29T00:06:07.002Z,2.44
2022-12-29T00:08:41.170Z,2.43
2022-12-29T00:11:15.978Z,2.44
2022-12-29T00:14:03.250Z,2.41
2022-12-29T00:16:32.320Z,2.40
2022-12-29T00:19:00.680Z,2.38
2022-12-29T00:21:48.046Z,2.37
2022-12-29T00:24:28.210Z,2.37
2022-12-29T00:27:29.165Z,2.36
2022-12-29T00:30:16.826Z,2.37
2022-12-29T00:33:04.807Z,2.46
2022-12-29T00:35:42.196Z,2.51
2022-12-29T00:38:31.905Z,2.52
2022-12-29T00:41:18.782Z,2.54
2022-12-29T00:44:05.655Z,2.56
2022-12-29T00:46:35.024Z,2.57
2022-12-29T00:49:22.604Z,2.58
2022-12-29T00:51:50.972Z,2.59
2022-12-29T00:54:19.577Z,2.59
2022-12-29T00:56:52.629Z,2.58
2022-12-29T00:59:21.782Z,2.57
2022-12-29T01:01:49.923Z,2.56
2022-12-29T01:04:18.475Z,2.55
2022-12-29T01:06:47.197Z,2.53
2022-12-29T01:09:37.543Z,2.51
2022-12-29T01:12:06.663Z,2.52
2022-12-29T01:14:36.560Z,2.51
2022-12-29T01:17:05.834Z,2.48
2022-12-29T01:19:34.856Z,2.45
2022-12-29T01:22:02.846Z,2.44
2022-12-29T01:24:30.898Z,2.44
2022-12-29T01:26:58.942Z,2.44
2022-12-29T01:29:26.962Z,2.44
2022-12-29T01:31:55.010Z,2.44
2022-12-29T01:34:24.492Z,2.44
2022-12-29T01:36:52.494Z,2.47
2022-12-29T01:39:20.513Z,2.55
2022-12-29T01:41:49.210Z,2.60
2022-12-29T01:44:56.549Z,2.60
2022-12-29T01:47:51.320Z,2.63
2022-12-29T01:50:27.507Z,2.65
2022-12-29T01:53:09.036Z,2.65
2022-12-29T01:55:51.084Z,2.68
2022-12-29T01:58:23.138Z,2.68
2022-12-29T02:00:51.875Z,2.68
2022-12-29T02:03:22.813Z,2.68
2022-12-29T02:05:57.166Z,2.69
2022-12-29T02:08:29.218Z,2.69
2022-12-29T02:11:00.600Z,2.69
2022-12-29T02:13:29.578Z,2.68
2022-12-29T02:16:16.344Z,2.67
2022-12-29T02:19:06.071Z,2.67
2022-12-29T02:21:57.699Z,2.66
2022-12-29T02:24:28.835Z,2.66
2022-12-29T02:27:25.252Z,2.64
2022-12-29T02:30:11.820Z,2.63
2022-12-29T02:32:46.072Z,2.62
2022-12-29T02:35:32.406Z,2.62
2022-12-29T02:38:11.906Z,2.62
2022-12-29T02:40:42.885Z,2.62
2022-12-29T02:43:44.079Z,2.62
2022-12-29T02:46:20.835Z,2.63
2022-12-29T02:49:20.999Z,2.63
2022-12-29T02:51:59.336Z,2.66
2022-12-29T02:54:43.648Z,2.73
2022-12-29T02:57:21.481Z,2.74
2022-12-29T02:59:57.250Z,2.75
2022-12-29T03:03:11.865Z,2.77
2022-12-29T03:05:51.558Z,2.78
2022-12-29T03:08:28.865Z,2.78
2022-12-29T03:11:06.583Z,2.79
2022-12-29T03:14:16.357Z,2.81
2022-12-29T03:16:51.543Z,2.82
2022-12-29T03:19:50.145Z,2.82
2022-12-29T03:22:28.933Z,2.84
2022-12-29T03:25:11.522Z,2.85
2022-12-29T03:27:45.852Z,2.85
2022-12-29T03:30:15.146Z,2.87
2022-12-29T03:32:50.892Z,2.87
2022-12-29T03:35:23.475Z,2.88
2022-12-29T03:38:12.322Z,2.87
2022-12-29T03:40:44.304Z,2.86
2022-12-29T03:43:14.077Z,2.88
2022-12-29T03:45:42.708Z,2.89
2022-12-29T03:48:11.440Z,2.90
2022-12-29T03:50:40.489Z,2.91
2022-12-29T03:53:08.629Z,2.92
2022-12-29T03:55:37.008Z,2.94
2022-12-29T03:58:05.241Z,2.95
2022-12-29T04:01:08.950Z,2.96
2022-12-29T04:03:38.278Z,2.96
2022-12-29T04:06:06.848Z,2.97
2022-12-29T04:08:44.818Z,2.98
2022-12-29T04:11:13.315Z,3.00
2022-12-29T04:13:43.338Z,3.01
2022-12-29T04:16:15.279Z,3.01
2022-12-29T04:18:43.762Z,3.02
2022-12-29T04:21:11.852Z,3.04
2022-12-29T04:23:42.709Z,3.13
2022-12-29T04:26:11.936Z,3.16
2022-12-29T04:28:50.719Z,3.18
2022-12-29T04:31:51.212Z,3.20
2022-12-29T04:34:20.103Z,3.23
2022-12-29T04:36:49.250Z,3.25
2022-12-29T04:39:17.230Z,3.27
2022-12-29T04:41:47.580Z,3.27
2022-12-29T04:44:20.002Z,3.26
2022-12-29T04:46:48.041Z,3.26
2022-12-29T04:49:31.130Z,3.24
2022-12-29T04:52:09.537Z,3.24
2022-12-29T04:54:38.577Z,3.23
2022-12-29T04:57:12.241Z,3.22
2022-12-29T04:59:41.018Z,3.22
2022-12-29T05:02:10.323Z,3.21
2022-12-29T05:04:38.587Z,3.21
2022-12-29T05:07:06.660Z,3.21
2022-12-29T05:09:36.212Z,3.20
2022-12-29T05:12:04.886Z,3.19
2022-12-29T05:14:34.082Z,3.19
2022-12-29T05:17:02.389Z,3.18
2022-12-29T05:19:30.846Z,3.17
2022-12-29T05:21:59.002Z,3.16
2022-12-29T05:24:27.046Z,3.16
2022-12-29T05:26:56.986Z,3.15
2022-12-29T05:29:53.580Z,3.15
2022-12-29T05:32:22.061Z,3.15
2022-12-29T05:34:50.887Z,3.14
2022-12-29T05:37:19.921Z,3.18
2022-12-29T05:39:47.990Z,3.24
2022-12-29T05:42:16.246Z,3.25
2022-12-29T05:44:55.014Z,3.26
2022-12-29T05:47:36.905Z,3.27
2022-12-29T05:50:23.716Z,3.29
2022-12-29T05:53:09.880Z,3.31
2022-12-29T05:55:43.434Z,3.29
2022-12-29T05:58:16.557Z,3.29
2022-12-29T06:00:45.895Z,3.29
2022-12-29T06:03:14.211Z,3.29
2022-12-29T06:05:43.256Z,3.28
2022-12-29T06:08:11.264Z,3.27
2022-12-29T06:10:39.538Z,3.24
2022-12-29T06:13:07.757Z,3.23
2022-12-29T06:15:43.008Z,3.22
2022-12-29T06:18:17.928Z,3.20
2022-12-29T06:20:48.147Z,3.19
2022-12-29T06:23:19.739Z,3.17
2022-12-29T06:25:49.461Z,3.16
2022-12-29T06:28:18.314Z,3.15
2022-12-29T06:30:47.542Z,3.14
2022-12-29T06:33:15.775Z,3.12
2022-12-29T06:35:44.824Z,3.12
2022-12-29T06:38:13.559Z,3.12
2022-12-29T06:40:43.444Z,3.12
2022-12-29T06:43:17.665Z,3.11
2022-12-29T06:46:02.888Z,3.10
2022-12-29T06:48:30.888Z,3.16
2022-12-29T06:50:58.951Z,3.22
2022-12-29T06:53:27.013Z,3.22
2022-12-29T06:55:55.446Z,3.22
2022-12-29T06:58:23.530Z,3.24
2022-12-29T07:00:51.980Z,3.25
2022-12-29T07:03:20.086Z,3.27
2022-12-29T07:05:48.119Z,3.28
2022-12-29T07:08:16.124Z,3.29
2022-12-29T07:10:45.353Z,3.30
2022-12-29T07:13:13.496Z,3.32
2022-12-29T07:15:41.458Z,3.33
2022-12-29T07:18:09.452Z,3.34
2022-12-29T07:20:37.632Z,3.34
2022-12-29T07:23:05.691Z,3.36
2022-12-29T07:25:33.768Z,3.35
2022-12-29T07:28:01.871Z,3.36
2022-12-29T07:30:29.886Z,3.36
2022-12-29T07:32:58.563Z,3.39
2022-12-29T07:35:26.655Z,3.40
2022-12-29T07:37:54.691Z,3.41
2022-12-29T07:40:22.991Z,3.41
2022-12-29T07:42:51.059Z,3.43
2022-12-29T07:45:19.781Z,3.47
2022-12-29T07:48:08.718Z,3.58
2022-12-29T07:50:37.783Z,3.65
2022-12-29T07:53:05.850Z,3.67
2022-12-29T07:55:33.921Z,3.71
2022-12-29T07:58:02.056Z,3.75
2022-12-29T08:00:30.270Z,3.78
2022-12-29T08:03:00.604Z,3.79
2022-12-29T08:05:28.762Z,3.81
2022-12-29T08:07:56.760Z,3.83
2022-12-29T08:10:26.570Z,3.85
2022-12-29T08:12:55.872Z,3.85
2022-12-29T08:15:30.548Z,3.85
2022-12-29T08:18:02.378Z,3.85
2022-12-29T08:20:30.476Z,3.84
2022-12-29T08:22:58.489Z,3.85
2022-12-29T08:25:26.568Z,3.85
2022-12-29T08:27:54.608Z,3.87
2022-12-29T08:30:22.606Z,3.87
2022-12-29T08:32:50.732Z,3.88
2022-12-29T08:35:18.742Z,3.90
2022-12-29T08:37:46.746Z,3.92
2022-12-29T08:40:14.992Z,3.94
2022-12-29T08:42:43.012Z,3.95
2022-12-29T08:45:11.618Z,3.96
2022-12-29T08:47:39.670Z,3.99
2022-12-29T08:50:08.200Z,4.09
2022-12-29T08:52:36.251Z,4.12
2022-12-29T08:55:04.680Z,4.12
2022-12-29T08:57:32.720Z,4.14
2022-12-29T09:00:08.041Z,4.16
2022-12-29T09:02:36.256Z,4.17
2022-12-29T09:05:05.652Z,4.18
2022-12-29T09:07:33.889Z,4.21
2022-12-29T09:10:02.310Z,4.23
2022-12-29T09:12:36.054Z,4.26
2022-12-29T09:15:05.697Z,4.30
2022-12-29T09:17:45.653Z,4.35
2022-12-29T09:20:17.116Z,4.41
2022-12-29T09:22:46.427Z,4.47
2022-12-29T09:25:15.163Z,4.53
2022-12-29T09:27:43.306Z,4.60
2022-12-29T09:30:13.251Z,4.67
2022-12-29T09:32:45.095Z,4.74
2022-12-29T09:35:14.925Z,4.82
2022-12-29T09:37:43.029Z,4.88
2022-12-29T09:40:31.726Z,4.95
2022-12-29T09:43:27.507Z,5.06
2022-12-29T09:46:07.555Z,5.22
2022-12-29T09:48:45.573Z,5.29
2022-12-29T09:51:17.809Z,5.37
2022-12-29T09:53:55.097Z,5.43
2022-12-29T09:56:26.016Z,5.47
2022-12-29T09:59:14.308Z,5.52
2022-12-29T10:01:51.546Z,5.55
2022-12-29T10:04:19.851Z,5.57
2022-12-29T10:07:31.301Z,5.60
2022-12-29T10:10:12.007Z,5.63
2022-12-29T10:13:25.820Z,5.63
2022-12-29T10:16:16.383Z,5.63
2022-12-29T10:19:01.102Z,5.67
2022-12-29T10:22:00.804Z,5.74
2022-12-29T10:24:32.122Z,5.81
2022-12-29T10:27:01.449Z,5.89
2022-12-29T10:29:36.293Z,5.99
2022-12-29T10:32:11.473Z,6.08
2022-12-29T10:34:46.144Z,6.17
2022-12-29T10:38:05.450Z,6.25
2022-12-29T10:40:41.468Z,6.37
2022-12-29T10:43:30.372Z,6.43
2022-12-29T10:46:05.590Z,6.51
2022-12-29T10:48:35.919Z,6.57
2022-12-29T10:51:06.725Z,6.63
2022-12-29T10:53:41.479Z,6.68
2022-12-29T10:56:26.742Z,6.74
2022-12-29T10:58:58.170Z,6.77
2022-12-29T11:01:33.524Z,6.82
2022-12-29T11:04:17.066Z,6.90
2022-12-29T11:06:45.115Z,6.97
2022-12-29T11:09:20.378Z,7.04
2022-12-29T11:11:48.511Z,7.12
2022-12-29T11:14:21.135Z,7.18
2022-12-29T11:17:00.616Z,7.26
2022-12-29T11:19:36.091Z,7.33
2022-12-29T11:22:23.758Z,7.38
2022-12-29T11:24:53.903Z,7.42
2022-12-29T11:27:25.271Z,7.46
2022-12-29T11:29:55.120Z,7.46
2022-12-29T11:32:29.082Z,7.47
2022-12-29T11:34:59.941Z,7.48
2022-12-29T11:37:31.244Z,7.51
2022-12-29T11:40:02.469Z,7.53
2022-12-29T11:42:37.778Z,7.55
2022-12-29T11:45:17.666Z,7.58
2022-12-29T11:47:50.005Z,7.60
2022-12-29T11:50:24.241Z,7.61
2022-12-29T11:53:04.143Z,7.62
2022-12-29T11:55:32.898Z,7.64
2022-12-29T11:58:05.375Z,7.62
2022-12-29T12:00:40.775Z,7.62
2022-12-29T12:03:18.328Z,7.59
2022-12-29T12:05:57.482Z,7.56
2022-12-29T12:09:04.299Z,7.54
2022-12-29T12:11:46.540Z,7.52
2022-12-29T12:14:33.147Z,7.50
2022-12-29T12:17:57.259Z,7.49
2022-12-29T12:20:36.302Z,7.48
2022-12-29T12:23:20.183Z,7.46
2022-12-29T12:26:00.317Z,7.45
2022-12-29T12:28:37.798Z,7.44
2022-12-29T12:31:16.714Z,7.43
2022-12-29T12:33:52.032Z,7.42
2022-12-29T12:36:45.571Z,7.42
2022-12-29T12:39:24.664Z,7.41
2022-12-29T12:42:11.458Z,7.42
2022-12-29T12:45:01.242Z,7.42
2022-12-29T12:47:56.877Z,7.44
2022-12-29T12:51:09.626Z,7.47
2022-12-29T12:54:03.676Z,7.49
2022-12-29T12:56:56.712Z,7.50
2022-12-29T12:59:34.532Z,7.52
2022-12-29T13:02:10.138Z,7.52
2022-12-29T13:05:00.283Z,7.54
2022-12-29T13:08:05.588Z,7.55
2022-12-29T13:10:37.580Z,7.55
2022-12-29T13:13:30.529Z,7.55
2022-12-29T13:16:19.949Z,7.56
2022-12-29T13:19:07.496Z,7.58
2022-12-29T13:22:13.565Z,7.59
2022-12-29T13:25:19.118Z,7.60
2022-12-29T13:28:11.692Z,7.61
2022-12-29T13:31:01.193Z,7.60
2022-12-29T13:33:50.111Z,7.58
2022-12-29T13:36:36.936Z,7.57
2022-12-29T13:39:21.075Z,7.55
2022-12-29T13:41:55.311Z,7.52
2022-12-29T13:44:36.430Z,7.50
2022-12-29T13:47:16.845Z,7.48
2022-12-29T13:49:46.252Z,7.45
2022-12-29T13:52:22.281Z,7.42
2022-12-29T13:55:03.567Z,7.39
2022-12-29T13:58:07.575Z,7.35
2022-12-29T14:01:06.341Z,7.30
2022-12-29T14:03:51.977Z,7.25
2022-12-29T14:06:41.955Z,7.20
2022-12-29T14:09:49.830Z,7.16
2022-12-29T14:12:33.177Z,7.10
2022-12-29T14:15:20.803Z,7.05
2022-12-29T14:18:05.452Z,7.01
2022-12-29T14:20:35.103Z,6.96
2022-12-29T14:23:35.167Z,6.91
2022-12-29T14:26:19.256Z,6.86
2022-12-29T14:28:49.832Z,6.82
2022-12-29T14:31:17.845Z,6.77
2022-12-29T14:34:07.793Z,6.74
2022-12-29T14:36:37.565Z,6.69
2022-12-29T14:39:45.442Z,6.65
2022-12-29T14:42:23.868Z,6.60
2022-12-29T14:44:53.698Z,6.56
2022-12-29T14:47:26.548Z,6.53
2022-12-29T14:49:55.963Z,6.50
2022-12-29T14:52:29.794Z,6.47
2022-12-29T14:55:01.643Z,6.45
2022-12-29T14:57:42.820Z,6.51
2022-12-29T15:00:28.352Z,6.52
2022-12-29T15:03:09.001Z,6.50
2022-12-29T15:05:54.236Z,6.49
2022-12-29T15:08:25.736Z,6.47
2022-12-29T15:10:59.600Z,6.46
2022-12-29T15:13:36.935Z,6.45
2022-12-29T15:16:05.908Z,6.44
2022-12-29T15:18:34.852Z,6.43
2022-12-29T15:21:06.302Z,6.41
2022-12-29T15:23:36.216Z,6.39
2022-12-29T15:26:09.654Z,6.36
2022-12-29T15:28:41.072Z,6.34
2022-12-29T15:31:23.569Z,6.32
2022-12-29T15:34:04.764Z,6.27
2022-12-29T15:36:40.011Z,6.25
2022-12-29T15:39:29.360Z,6.22
2022-12-29T15:42:01.076Z,6.19
2022-12-29T15:44:43.524Z,6.17
2022-12-29T15:47:17.538Z,6.15
2022-12-29T15:49:49.696Z,6.11
2022-12-29T15:52:22.764Z,6.08
2022-12-29T15:54:54.334Z,6.05
2022-12-29T15:57:28.287Z,6.03
2022-12-29T15:59:56.440Z,6.00
2022-12-29T16:02:25.827Z,5.98
2022-12-29T16:05:17.143Z,5.96
2022-12-29T16:07:57.007Z,5.95
2022-12-29T16:10:35.120Z,6.00
2022-12-29T16:13:11.856Z,6.01
2022-12-29T16:15:40.162Z,5.99
2022-12-29T16:18:25.483Z,5.98
2022-12-29T16:20:55.528Z,5.98
2022-12-29T16:23:27.805Z,5.98
2022-12-29T16:25:58.933Z,5.96
2022-12-29T16:28:40.212Z,5.95
2022-12-29T16:31:19.834Z,5.92
2022-12-29T16:33:50.908Z,5.90
2022-12-29T16:36:31.662Z,5.87
2022-12-29T16:39:22.192Z,5.84
2022-12-29T16:41:51.590Z,5.81
2022-12-29T16:44:22.912Z,5.78
2022-12-29T16:46:57.677Z,5.76
2022-12-29T16:49:27.336Z,5.74
2022-12-29T16:51:56.467Z,5.71
2022-12-29T16:54:37.950Z,5.67
2022-12-29T16:57:07.445Z,5.64
2022-12-29T16:59:38.211Z,5.62
2022-12-29T17:02:16.917Z,5.59
2022-12-29T17:04:49.479Z,5.57
2022-12-29T17:07:23.715Z,5.54
2022-12-29T17:09:54.340Z,5.53
2022-12-29T17:12:27.161Z,5.57
2022-12-29T17:15:06.822Z,5.58
2022-12-29T17:17:42.560Z,5.55
2022-12-29T17:20:19.539Z,5.54
2022-12-29T17:22:48.540Z,5.52
2022-12-29T17:25:20.666Z,5.49
2022-12-29T17:28:03.882Z,5.47
2022-12-29T17:30:35.158Z,5.45
2022-12-29T17:33:10.537Z,5.43
2022-12-29T17:35:38.629Z,5.41
2022-12-29T17:38:19.999Z,5.37
2022-12-29T17:40:48.291Z,5.34
2022-12-29T17:43:17.208Z,5.32
2022-12-29T17:45:49.637Z,5.29
2022-12-29T17:48:18.827Z,5.28
2022-12-29T17:50:49.997Z,5.26
2022-12-29T17:53:25.927Z,5.25
2022-12-29T17:55:53.954Z,5.24
2022-12-29T17:58:28.046Z,5.22
2022-12-29T18:00:59.766Z,5.23
2022-12-29T18:03:32.435Z,5.28
2022-12-29T18:06:01.074Z,5.29
2022-12-29T18:08:29.642Z,5.30
2022-12-29T18:10:58.430Z,5.31
2022-12-29T18:13:39.314Z,5.34
2022-12-29T18:16:11.754Z,5.35
2022-12-29T18:18:39.799Z,5.36
2022-12-29T18:21:19.660Z,5.36
2022-12-29T18:23:48.587Z,5.36
2022-12-29T18:26:27.596Z,5.35
2022-12-29T18:29:00.051Z,5.34
2022-12-29T18:31:31.307Z,5.34
2022-12-29T18:34:01.504Z,5.33
2022-12-29T18:36:30.254Z,5.33
2022-12-29T18:38:58.267Z,5.32
2022-12-29T18:41:31.610Z,5.31
2022-12-29T18:44:00.296Z,5.29
2022-12-29T18:46:28.982Z,5.28
2022-12-29T18:48:57.147Z,5.26
2022-12-29T18:51:26.302Z,5.26
2022-12-29T18:53:54.888Z,5.31
2022-12-29T18:56:24.243Z,5.32
2022-12-29T18:58:53.787Z,5.31
2022-12-29T19:01:28.216Z,5.30
2022-12-29T19:03:56.938Z,5.32
2022-12-29T19:06:25.000Z,5.32
2022-12-29T19:08:53.315Z,5.32
2022-12-29T19:11:21.346Z,5.33
2022-12-29T19:13:49.534Z,5.32
2022-12-29T19:16:20.828Z,5.32
2022-12-29T19:19:04.087Z,5.31
2022-12-29T19:21:39.861Z,5.30
2022-12-29T19:24:08.240Z,5.28
2022-12-29T19:26:38.917Z,5.27
2022-12-29T19:29:13.758Z,5.25
2022-12-29T19:31:42.574Z,5.23
2022-12-29T19:34:14.769Z,5.22
2022-12-29T19:36:44.330Z,5.29
2022-12-29T19:39:12.867Z,5.30
2022-12-29T19:41:41.325Z,5.29
2022-12-29T19:44:09.369Z,5.30
2022-12-29T19:46:37.476Z,5.31
2022-12-29T19:49:05.947Z,5.32
2022-12-29T19:51:34.236Z,5.30
2022-12-29T19:54:02.257Z,5.31
2022-12-29T19:56:30.980Z,5.30
2022-12-29T19:58:59.040Z,5.30
2022-12-29T20:01:27.684Z,5.28
2022-12-29T20:03:55.954Z,5.26
2022-12-29T20:06:23.956Z,5.25
2022-12-29T20:08:52.036Z,5.24
2022-12-29T20:11:20.193Z,5.22
2022-12-29T20:13:48.567Z,5.20
2022-12-29T20:16:19.092Z,5.20
2022-12-29T20:18:48.843Z,5.26
2022-12-29T20:21:21.053Z,5.28
2022-12-29T20:23:50.518Z,5.28
2022-12-29T20:26:25.147Z,5.30
2022-12-29T20:28:54.117Z,5.32
2022-12-29T20:31:28.721Z,5.34
2022-12-29T20:33:57.313Z,5.35
2022-12-29T20:36:29.314Z,5.37
2022-12-29T20:38:59.344Z,5.37
2022-12-29T20:41:28.652Z,5.38
2022-12-29T20:43:57.556Z,5.39
2022-12-29T20:46:32.801Z,5.40
2022-12-29T20:49:05.542Z,5.40
2022-12-29T20:52:03.938Z,5.40
2022-12-29T20:54:23.313Z,5.42
2022-12-29T20:56:52.660Z,5.49
2022-12-29T20:59:28.873Z,5.54
2022-12-29T21:01:58.680Z,5.55
2022-12-29T21:04:27.058Z,5.57
2022-12-29T21:06:55.524Z,5.58
2022-12-29T21:09:23.522Z,5.59
2022-12-29T21:11:51.499Z,5.61
2022-12-29T21:14:19.577Z,5.62
2022-12-29T21:16:47.598Z,5.63
2022-12-29T21:19:16.244Z,5.61
2022-12-29T21:21:44.236Z,5.60
2022-12-29T21:24:12.219Z,5.59
2022-12-29T21:26:40.711Z,5.59
2022-12-29T21:29:08.754Z,5.59
2022-12-29T21:31:37.134Z,5.58
2022-12-29T21:34:06.238Z,5.59
2022-12-29T21:36:34.827Z,5.65
2022-12-29T21:39:03.714Z,5.68
2022-12-29T21:41:32.543Z,5.67
2022-12-29T21:44:20.128Z,5.68
2022-12-29T21:46:48.128Z,5.69
2022-12-29T21:49:16.687Z,5.70
2022-12-29T21:51:50.740Z,5.70
2022-12-29T21:54:49.067Z,5.70
2022-12-29T21:57:37.836Z,5.69
2022-12-29T22:00:27.429Z,5.67
2022-12-29T22:03:22.515Z,5.66
2022-12-29T22:06:11.655Z,5.63
2022-12-29T22:08:59.538Z,5.61
2022-12-29T22:11:46.336Z,5.61
2022-12-29T22:14:14.438Z,5.68
2022-12-29T22:16:42.437Z,5.68
2022-12-29T22:19:11.143Z,5.67
2022-12-29T22:21:39.271Z,5.68
2022-12-29T22:24:08.912Z,5.69
2022-12-29T22:26:36.976Z,5.69
2022-12-29T22:29:05.189Z,5.69
2022-12-29T22:31:34.096Z,5.68
2022-12-29T22:34:04.806Z,5.66
2022-12-29T22:36:33.582Z,5.65
2022-12-29T22:39:01.696Z,5.64
2022-12-29T22:41:29.818Z,5.63
2022-12-29T22:43:57.955Z,5.61
2022-12-29T22:46:26.040Z,5.59
2022-12-29T22:48:54.196Z,5.57
2022-12-29T22:51:22.158Z,5.56
2022-12-29T22:53:51.094Z,5.55
2022-12-29T22:56:19.155Z,5.57
2022-12-29T22:58:48.431Z,5.63
2022-12-29T23:01:18.930Z,5.63
2022-12-29T23:03:47.359Z,5.61
2022-12-29T23:06:17.429Z,5.60
2022-12-29T23:08:46.670Z,5.61
2022-12-29T23:11:15.039Z,5.61
2022-12-29T23:13:45.282Z,5.61
2022-12-29T23:16:15.242Z,5.60
2022-12-29T23:18:44.902Z,5.60
2022-12-29T23:21:14.340Z,5.56
2022-12-29T23:23:55.013Z,5.53
2022-12-29T23:26:33.917Z,5.50
2022-12-29T23:29:04.217Z,5.46
2022-12-29T23:31:33.199Z,5.43
2022-12-29T23:34:03.051Z,5.40
2022-12-29T23:36:31.937Z,5.37
2022-12-29T23:39:00.242Z,5.37
2022-12-29T23:41:28.866Z,5.42
2022-12-29T23:43:57.598Z,5.43
2022-12-29T23:46:28.250Z,5.41
2022-12-29T23:48:56.962Z,5.41
2022-12-29T23:51:25.165Z,5.38
2022-12-29T23:53:53.514Z,5.37
2022-12-29T23:56:23.777Z,5.38
2022-12-29T23:58:52.780Z,5.39
